Weather at Hartsfield Jackson Atlanta International Airport

Public forecast

Using degrees Fahrenheit for public forecast. Weather courtesy of forecast.io.

Current aviation weather report (METAR) for Hartsfield Jackson Atlanta International Airport

Retrieved 2021/01/23 12:52 UTC (13 minutes ago):

KATL 231252Z COR 33007KT 10SM FEW200 02/M03 A3016 RMK AO2 SLP218 T00171033

Aviation forecast (TAF) for Hartsfield Jackson Atlanta International Airport

Retrieved 2021/01/23 12:22 UTC (43 minutes ago):

TAF KATL 231120Z 2312/2418 32010KT P6SM SKC FM231500 02007KT P6SM SKC FM231700 10005KT P6SM SKC FM240600 11006KT P6SM SCT150 FM240900 10008KT P6SM OVC100 FM241500 10009KT P6SM OVC050